Time;durP1;ratioP1;P1;durP2;ratioP2;P2;SDS_P1;SDS_P2;PMS_P1;PMS_P2;Temp;Humidity;BMP_temperature;BMP_pressure;BME280_temperature;BME280_humidity;BME280_pressure;Samples;Min_cycle;Max_cycle;Signal;HPM_P1;HPM_P2
2022/09/05 00:00:00;;;;;;;4.55;1.90;;;;;;;17.13;68.85;156825.81;4991278;28;20502;-73
2022/09/05 00:02:26;;;;;;;6.07;2.00;;;;;;;17.20;68.67;156842.56;5037559;28;20049;-74
2022/09/05 00:05:15;;;;;;;3.03;1.77;;;;;;;17.12;68.99;156823.25;5021341;28;20037;-73
2022/09/05 00:07:51;;;;;;;5.38;1.80;;;;;;;17.06;69.07;156806.50;5010587;28;20041;-73
2022/09/05 00:10:46;;;;;;;4.18;2.25;;;;;;;16.99;69.43;156789.78;5022189;28;20040;-73
2022/09/05 00:13:19;;;;;;;2.75;1.80;;;;;;;16.96;69.32;156782.03;4996363;28;20041;-74
2022/09/05 00:16:04;;;;;;;3.05;1.98;;;;;;;17.00;69.17;156791.06;5029651;28;20584;-74
2022/09/05 00:18:41;;;;;;;4.40;2.03;;;;;;;17.01;69.03;156794.91;4996435;28;20037;-74
2022/09/05 00:21:30;;;;;;;6.70;2.03;;;;;;;17.05;68.68;156805.22;5022158;28;20100;-73
2022/09/05 00:24:24;;;;;;;4.07;1.90;;;;;;;17.00;68.97;156792.31;4997371;28;20120;-72
2022/09/05 00:27:28;;;;;;;4.80;1.77;;;;;;;16.97;69.11;156783.31;5032693;28;20059;-73
2022/09/05 00:30:12;;;;;;;3.58;2.08;;;;;;;16.96;69.32;156780.75;5016160;28;20103;-74
2022/09/05 00:32:44;;;;;;;7.72;2.10;;;;;;;16.93;69.19;156774.28;5026834;28;20064;-75
2022/09/05 00:35:18;;;;;;;8.35;1.83;;;;;;;16.87;69.67;156760.13;5024267;28;20037;-73
2022/09/05 00:37:47;;;;;;;4.70;2.08;;;;;;;16.78;69.97;156735.63;5017459;28;20033;-75
2022/09/05 00:40:18;;;;;;;5.00;1.88;;;;;;;16.73;70.36;156725.31;5007535;28;20091;-74
2022/09/05 00:42:48;;;;;;;5.37;1.93;;;;;;;16.73;70.56;156724.03;5022458;28;20128;-75
2022/09/05 00:45:24;;;;;;;4.03;1.80;;;;;;;16.69;70.74;156713.75;5029787;28;20302;-76
2022/09/05 00:48:04;;;;;;;16.92;2.50;;;;;;;16.66;70.95;156706.00;5037440;28;20046;-76
2022/09/05 00:50:59;;;;;;;5.50;2.22;;;;;;;16.63;70.88;156699.59;5018591;28;20038;-76
2022/09/05 00:53:32;;;;;;;6.30;2.10;;;;;;;16.54;71.30;156677.69;4955327;28;20057;-73
2022/09/05 00:56:31;;;;;;;2.03;1.80;;;;;;;16.55;71.24;156680.22;5019261;28;20505;-75
2022/09/05 00:59:26;;;;;;;5.45;2.00;;;;;;;16.45;71.80;156654.50;5001952;28;20510;-74
2022/09/05 01:01:58;;;;;;;3.85;2.17;;;;;;;16.46;71.84;156655.78;5032684;28;20040;-74
2022/09/05 01:04:37;;;;;;;4.68;2.20;;;;;;;16.48;71.90;156660.91;5020233;28;20034;-75
2022/09/05 01:07:09;;;;;;;3.95;2.20;;;;;;;16.54;71.24;156676.41;5009502;28;20483;-77
2022/09/05 01:10:01;;;;;;;3.10;2.13;;;;;;;16.48;71.77;156660.91;5008946;28;20046;-75
2022/09/05 01:12:27;;;;;;;6.82;2.33;;;;;;;16.40;72.77;156641.59;5012108;28;20351;-74
2022/09/05 01:15:21;;;;;;;6.95;2.13;;;;;;;16.38;72.26;156635.19;5016036;28;20487;-76
2022/09/05 01:17:52;;;;;;;4.50;2.20;;;;;;;16.34;72.55;156626.16;5020984;28;20108;-74
2022/09/05 01:20:39;;;;;;;2.90;2.17;;;;;;;16.30;72.71;156617.16;5015121;28;20917;-73
2022/09/05 01:23:17;;;;;;;6.20;2.20;;;;;;;16.24;73.50;156601.72;5016117;28;20025;-74
2022/09/05 01:26:11;;;;;;;3.83;2.08;;;;;;;16.20;73.32;156590.09;5022393;28;20030;-74
2022/09/05 01:28:40;;;;;;;2.97;1.85;;;;;;;16.26;73.00;156605.59;5028742;28;20037;-75
2022/09/05 01:31:25;;;;;;;5.47;2.13;;;;;;;16.19;73.34;156588.84;5022619;28;20128;-74
2022/09/05 01:33:55;;;;;;;4.28;2.00;;;;;;;16.05;74.26;156552.78;5018142;28;20483;-73
2022/09/05 01:36:51;;;;;;;7.15;2.20;;;;;;;15.93;74.69;156523.19;5023085;28;20029;-73
2022/09/05 01:39:29;;;;;;;4.40;2.47;;;;;;;15.89;75.03;156512.88;5000248;28;20446;-72
2022/09/05 01:42:24;;;;;;;2.28;2.08;;;;;;;15.86;75.95;156506.47;5004926;28;20037;-74
2022/09/05 01:44:55;;;;;;;4.35;2.20;;;;;;;15.81;75.93;156492.31;5005930;28;20179;-74
2022/09/05 01:47:35;;;;;;;5.85;2.17;;;;;;;15.73;75.98;156472.97;5008815;28;20045;-74
2022/09/05 01:50:10;;;;;;;2.75;1.92;;;;;;;15.78;75.93;156485.84;5020035;28;20168;-74
2022/09/05 01:52:54;;;;;;;3.03;1.88;;;;;;;15.69;76.60;156463.94;5024155;28;20069;-73
2022/09/05 01:55:43;;;;;;;8.10;2.45;;;;;;;15.71;76.67;156467.81;5019364;28;20562;-74
2022/09/05 01:58:33;;;;;;;5.80;2.40;;;;;;;15.71;76.38;156469.09;5024318;28;20045;-73
2022/09/05 02:01:22;;;;;;;3.30;2.17;;;;;;;15.80;75.72;156491.00;5007379;28;20033;-74
2022/09/05 02:04:06;;;;;;;4.80;2.08;;;;;;;15.85;75.86;156503.88;4988200;28;20084;-74
2022/09/05 02:07:10;;;;;;;5.53;2.35;;;;;;;15.94;75.19;156527.06;5018289;28;20049;-73
2022/09/05 02:09:59;;;;;;;4.25;2.17;;;;;;;16.01;74.71;156542.47;5017901;28;20034;-75
2022/09/05 02:12:39;;;;;;;3.83;2.10;;;;;;;16.08;74.67;156560.50;4995180;28;20407;-73
2022/09/05 02:15:35;;;;;;;3.38;2.20;;;;;;;16.11;74.35;156569.53;5012410;28;20054;-74
2022/09/05 02:18:09;;;;;;;3.28;2.13;;;;;;;16.11;74.25;156568.25;5023134;28;20037;-73
2022/09/05 02:20:41;;;;;;;4.53;2.10;;;;;;;16.12;73.84;156572.13;5006813;28;20048;-74
2022/09/05 02:23:14;;;;;;;6.47;2.40;;;;;;;16.16;73.92;156581.09;5008949;28;20421;-75
2022/09/05 02:25:59;;;;;;;3.40;2.03;;;;;;;16.13;73.81;156574.69;5016581;28;20377;-74
2022/09/05 02:28:40;;;;;;;4.53;2.20;;;;;;;16.21;73.40;156593.97;5005162;28;20033;-74
2022/09/05 02:31:19;;;;;;;4.40;2.25;;;;;;;16.13;73.44;156574.69;5002214;28;20041;-74
2022/09/05 02:33:56;;;;;;;5.47;2.58;;;;;;;16.20;73.20;156590.09;5025252;28;20116;-73
2022/09/05 02:36:42;;;;;;;3.42;2.30;;;;;;;16.15;73.78;156578.53;5016586;28;20040;-73
2022/09/05 02:39:25;;;;;;;5.78;2.50;;;;;;;16.19;73.23;156587.56;5018293;28;20034;-74
2022/09/05 02:41:53;;;;;;;3.45;2.20;;;;;;;16.19;73.18;156588.84;5024217;28;20067;-73
2022/09/05 02:44:29;;;;;;;7.65;2.35;;;;;;;16.28;72.64;156612.00;5018917;28;20045;-73
2022/09/05 02:47:03;;;;;;;4.50;2.03;;;;;;;16.27;72.49;156608.16;5009589;28;20034;-74
2022/09/05 02:50:05;;;;;;;5.50;2.08;;;;;;;16.29;72.34;156613.28;5018941;28;20487;-75
2022/09/05 02:52:37;;;;;;;3.15;2.38;;;;;;;16.24;73.02;156601.72;5018291;28;20030;-74
2022/09/05 02:55:17;;;;;;;3.40;2.60;;;;;;;16.20;72.50;156590.09;5026691;28;20033;-73
2022/09/05 02:57:53;;;;;;;5.47;2.63;;;;;;;16.14;72.62;156577.28;5015426;28;20542;-75
2022/09/05 03:00:22;;;;;;;4.30;2.40;;;;;;;16.13;72.71;156573.41;5035077;28;20033;-73
2022/09/05 03:02:50;;;;;;;6.20;2.55;;;;;;;16.08;72.82;156561.78;5010769;28;20037;-74
2022/09/05 03:05:28;;;;;;;3.42;2.33;;;;;;;16.08;73.18;156560.50;5026881;28;20033;-74
2022/09/05 03:08:21;;;;;;;3.78;2.30;;;;;;;16.05;73.24;156552.78;5034692;28;20034;-73
2022/09/05 03:11:26;;;;;;;3.22;2.30;;;;;;;15.91;73.79;156519.31;5019470;28;20038;-75
2022/09/05 03:14:39;;;;;;;3.65;2.58;;;;;;;15.90;74.01;156516.75;4974905;28;20076;-74
2022/09/05 03:17:08;;;;;;;6.50;2.58;;;;;;;15.84;74.35;156500.00;4975072;28;20038;-74
2022/09/05 03:19:45;;;;;;;5.60;2.63;;;;;;;15.84;74.63;156501.31;5025300;28;20045;-74
2022/09/05 03:22:21;;;;;;;3.17;2.35;;;;;;;15.79;74.75;156488.44;5011540;28;20117;-75
2022/09/05 03:25:08;;;;;;;6.85;2.55;;;;;;;15.77;75.05;156483.31;5030091;28;20087;-73
2022/09/05 03:28:15;;;;;;;9.23;2.65;;;;;;;15.76;75.11;156480.72;5017016;28;20136;-73
2022/09/05 03:31:14;;;;;;;5.35;2.38;;;;;;;15.73;75.16;156474.28;5018320;28;20083;-76
2022/09/05 03:34:11;;;;;;;6.78;2.70;;;;;;;15.66;75.60;156454.94;4990513;28;20041;-75
2022/09/05 03:37:05;;;;;;;4.18;2.65;;;;;;;15.60;76.27;156439.50;5006333;28;20428;-75
2022/09/05 03:39:41;;;;;;;4.03;2.47;;;;;;;15.62;76.14;156445.94;5005131;28;20510;-75
2022/09/05 03:42:15;;;;;;;11.18;2.55;;;;;;;15.62;75.92;156445.94;5027304;28;20033;-76
2022/09/05 03:44:47;;;;;;;4.40;2.60;;;;;;;15.70;75.81;156465.22;5026597;28;20072;-76
2022/09/05 03:47:31;;;;;;;4.00;2.50;;;;;;;15.67;75.83;156458.81;5023000;28;20030;-75
2022/09/05 03:50:16;;;;;;;5.10;2.60;;;;;;;15.71;75.81;156469.09;5008565;28;20125;-75
2022/09/05 03:53:08;;;;;;;4.30;2.58;;;;;;;15.68;76.12;156460.09;5015768;28;20049;-75
2022/09/05 03:55:55;;;;;;;6.10;2.67;;;;;;;15.62;76.53;156444.66;5012468;28;20041;-75
2022/09/05 03:58:21;;;;;;;4.88;2.38;;;;;;;15.63;76.46;156447.19;5018626;28;20160;-75
2022/09/05 04:01:11;;;;;;;5.22;2.70;;;;;;;15.60;76.27;156439.50;5023875;28;20124;-75
2022/09/05 04:03:58;;;;;;;5.20;2.80;;;;;;;15.70;75.75;156465.22;5021575;28;20065;-75
2022/09/05 04:06:46;;;;;;;6.10;2.25;;;;;;;15.66;75.88;156456.22;5015447;28;20525;-72
2022/09/05 04:09:36;;;;;;;6.22;2.55;;;;;;;15.73;75.32;156474.28;5011360;28;20137;-74
2022/09/05 04:12:16;;;;;;;6.03;2.70;;;;;;;15.74;75.15;156475.56;5005998;28;20634;-72
2022/09/05 04:14:46;;;;;;;6.40;2.90;;;;;;;15.71;75.18;156469.09;5000970;28;20049;-73
2022/09/05 04:17:23;;;;;;;4.95;2.78;;;;;;;15.67;75.67;156457.47;5008317;28;20033;-73
2022/09/05 04:20:00;;;;;;;5.55;2.80;;;;;;;15.66;75.29;156454.94;5006086;28;20072;-74
2022/09/05 04:22:41;;;;;;;3.75;2.60;;;;;;;15.68;75.29;156461.34;5015646;28;20030;-74
2022/09/05 04:25:41;;;;;;;3.13;2.80;;;;;;;15.67;75.21;156458.81;5038494;28;20513;-75
2022/09/05 04:28:37;;;;;;;4.47;2.63;;;;;;;15.63;75.17;156448.47;5010113;28;20485;-75
2022/09/05 04:31:15;;;;;;;9.27;3.00;;;;;;;15.57;75.73;156434.31;5010690;28;20140;-74
2022/09/05 04:34:05;;;;;;;6.07;2.63;;;;;;;15.58;75.94;156436.91;5024878;28;20029;-73
2022/09/05 04:36:37;;;;;;;5.05;3.00;;;;;;;15.53;76.28;156424.03;5001627;28;20050;-74
2022/09/05 04:39:18;;;;;;;4.60;2.92;;;;;;;15.63;75.66;156447.19;5010775;28;20037;-75
2022/09/05 04:41:55;;;;;;;6.47;2.60;;;;;;;15.58;76.07;156435.63;5005125;28;20475;-73
2022/09/05 04:44:34;;;;;;;5.57;2.80;;;;;;;15.59;75.84;156438.19;5005693;28;20091;-75
2022/09/05 04:47:07;;;;;;;5.10;2.65;;;;;;;15.63;75.79;156447.19;5023262;28;20750;-74
2022/09/05 04:49:38;;;;;;;6.22;3.20;;;;;;;15.62;76.17;156444.66;5033028;28;20072;-73
2022/09/05 04:52:45;;;;;;;5.20;2.78;;;;;;;15.51;76.35;156418.88;5023811;28;20182;-73
2022/09/05 04:55:19;;;;;;;5.78;2.90;;;;;;;15.52;76.61;156420.16;5037141;28;20041;-75
2022/09/05 04:58:06;;;;;;;6.38;2.83;;;;;;;15.60;76.30;156440.78;5004728;28;20037;-74
2022/09/05 05:00:39;;;;;;;5.78;3.50;;;;;;;15.58;76.26;156436.91;5016866;28;20046;-71
2022/09/05 05:03:18;;;;;;;4.65;2.92;;;;;;;15.57;76.51;156433.03;5027093;28;20495;-72
2022/09/05 05:05:47;;;;;;;10.38;2.90;;;;;;;15.54;76.69;156425.34;5001275;28;20247;-73
2022/09/05 05:08:30;;;;;;;7.78;3.00;;;;;;;15.53;76.82;156422.75;5022009;28;20042;-74
2022/09/05 05:11:11;;;;;;;6.63;3.13;;;;;;;15.58;76.63;156436.91;5038189;28;20029;-73
2022/09/05 05:14:10;;;;;;;8.82;2.75;;;;;;;15.65;76.34;156453.66;4987704;28;20034;-74
2022/09/05 05:17:02;;;;;;;5.35;2.50;;;;;;;15.62;76.16;156444.66;5006183;28;20034;-75
2022/09/05 05:19:33;;;;;;;8.43;2.80;;;;;;;15.65;76.44;156453.66;5024542;28;20374;-74
2022/09/05 05:22:02;;;;;;;7.40;2.83;;;;;;;15.69;76.11;156462.63;5017129;28;20490;-75
2022/09/05 05:24:43;;;;;;;4.68;2.88;;;;;;;15.80;75.83;156489.72;5028901;28;20087;-74
2022/09/05 05:27:19;;;;;;;7.20;3.15;;;;;;;15.84;75.97;156500.00;5020321;28;20028;-74
2022/09/05 05:29:55;;;;;;;8.32;3.25;;;;;;;15.94;75.85;156525.78;5000274;28;20099;-75
2022/09/05 05:32:43;;;;;;;13.43;3.03;;;;;;;15.95;75.90;156529.66;5005937;28;20682;-74
2022/09/05 05:35:17;;;;;;;5.90;2.65;;;;;;;15.99;75.61;156537.34;5004108;28;20041;-75
2022/09/05 05:37:49;;;;;;;7.50;3.15;;;;;;;16.07;75.82;156557.97;5027833;28;20044;-75
2022/09/05 05:40:18;;;;;;;4.00;2.72;;;;;;;16.13;75.96;156574.69;5009900;28;20058;-75
2022/09/05 05:42:45;;;;;;;13.27;2.97;;;;;;;16.26;74.76;156606.88;5010446;28;20049;-75
2022/09/05 05:45:17;;;;;;;6.22;3.03;;;;;;;16.32;74.76;156622.31;5026542;28;20551;-74
2022/09/05 05:47:58;;;;;;;6.97;2.90;;;;;;;16.30;74.56;156617.16;5010514;28;20037;-77
2022/09/05 05:50:52;;;;;;;4.95;2.53;;;;;;;16.33;75.30;156624.91;4991398;28;20235;-74
2022/09/05 05:53:38;;;;;;;8.18;2.75;;;;;;;16.35;74.76;156628.78;5024990;28;20025;-74
2022/09/05 05:56:24;;;;;;;5.57;2.90;;;;;;;16.38;74.36;156636.47;5005796;28;20120;-76
2022/09/05 05:59:17;;;;;;;8.15;2.83;;;;;;;16.44;74.32;156650.63;5022539;28;20038;-75
2022/09/05 06:02:11;;;;;;;6.30;2.83;;;;;;;16.52;74.64;156672.53;5011032;28;20041;-75
2022/09/05 06:04:49;;;;;;;4.88;2.85;;;;;;;16.62;74.31;156697.00;5011959;28;20037;-76
2022/09/05 06:07:29;;;;;;;4.78;2.95;;;;;;;16.71;73.84;156718.91;5026437;28;20071;-75
2022/09/05 06:10:14;;;;;;;6.85;3.00;;;;;;;16.69;73.47;156713.75;5008174;28;20045;-76
2022/09/05 06:13:18;;;;;;;4.43;2.80;;;;;;;16.68;74.00;156712.44;5007477;28;20037;-76
2022/09/05 06:16:02;;;;;;;5.25;2.75;;;;;;;16.73;74.13;156725.31;5024326;28;20084;-73
2022/09/05 06:19:11;;;;;;;7.95;2.95;;;;;;;16.72;73.40;156722.72;5010403;28;20414;-76
2022/09/05 06:22:05;;;;;;;4.68;2.85;;;;;;;16.76;73.74;156731.75;5025351;28;20053;-75
2022/09/05 06:24:33;;;;;;;6.32;2.95;;;;;;;16.80;74.02;156742.09;5021832;28;20060;-75
2022/09/05 06:26:59;;;;;;;5.35;3.10;;;;;;;16.87;73.35;156760.13;5043691;28;20033;-74
2022/09/05 06:30:01;;;;;;;6.00;3.17;;;;;;;16.94;73.05;156776.88;5026493;28;20047;-74
2022/09/05 06:32:42;;;;;;;7.07;2.58;;;;;;;16.91;72.88;156769.13;5010716;28;20117;-74
2022/09/05 06:35:21;;;;;;;6.65;3.08;;;;;;;16.94;72.96;156776.88;5017309;28;20092;-74
2022/09/05 06:38:25;;;;;;;4.03;2.78;;;;;;;17.03;72.96;156800.06;5026990;28;20037;-72
2022/09/05 06:41:14;;;;;;;12.05;3.47;;;;;;;17.10;72.88;156818.13;5013924;28;20099;-74
2022/09/05 06:44:18;;;;;;;5.88;2.58;;;;;;;17.19;72.55;156838.69;5000559;28;20038;-73
2022/09/05 06:46:47;;;;;;;3.80;2.60;;;;;;;17.21;72.67;156843.84;5022391;28;20036;-74
2022/09/05 06:49:16;;;;;;;3.50;2.58;;;;;;;17.32;72.18;156872.19;5017952;28;20103;-75
2022/09/05 06:51:45;;;;;;;9.27;3.00;;;;;;;17.51;71.39;156921.13;5024222;28;20040;-74
2022/09/05 06:54:41;;;;;;;6.68;2.80;;;;;;;17.55;71.25;156930.16;5001694;28;20456;-74
2022/09/05 06:57:44;;;;;;;3.42;2.60;;;;;;;17.62;71.15;156946.91;5006610;28;20403;-76
2022/09/05 07:00:29;;;;;;;;;;;;;;;17.58;71.69;156936.63;5003267;28;20038;-74
2022/09/05 07:03:13;;;;;;;4.72;2.90;;;;;;;17.60;71.92;156943.03;5027969;28;19971;-74
2022/09/05 07:06:07;;;;;;;3.25;2.75;;;;;;;17.54;71.52;156927.59;5024234;28;20096;-76
2022/09/05 07:08:50;;;;;;;5.57;2.67;;;;;;;17.50;72.36;156917.31;5025564;28;20033;-75
2022/09/05 07:11:22;;;;;;;4.72;2.63;;;;;;;17.43;72.62;156899.25;5022436;28;20045;-75
2022/09/05 07:13:55;;;;;;;5.00;2.97;;;;;;;17.42;72.90;156897.97;5013332;28;20041;-75
2022/09/05 07:16:34;;;;;;;4.90;2.50;;;;;;;17.47;72.85;156909.56;5012725;28;20041;-75
2022/09/05 07:19:23;;;;;;;4.43;2.58;;;;;;;17.41;72.87;156895.38;5036151;28;20127;-76
2022/09/05 07:21:48;;;;;;;5.20;2.80;;;;;;;17.45;73.43;156905.69;4988840;28;20125;-76
2022/09/05 07:24:19;;;;;;;6.55;2.30;;;;;;;17.51;73.18;156919.84;5021965;28;20108;-75
2022/09/05 07:26:47;;;;;;;7.03;2.78;;;;;;;17.60;72.75;156943.03;5036612;28;20376;-75
2022/09/05 07:29:18;;;;;;;6.75;2.55;;;;;;;17.75;72.08;156979.13;5024762;28;20060;-75
2022/09/05 07:31:47;;;;;;;5.95;2.70;;;;;;;17.81;72.62;156994.59;5023883;28;20117;-74
2022/09/05 07:34:18;;;;;;;4.38;2.80;;;;;;;17.99;72.02;157039.72;5001680;28;20160;-74
2022/09/05 07:36:47;;;;;;;5.32;2.58;;;;;;;18.03;71.39;157050.06;4992709;28;20088;-76
2022/09/05 07:39:21;;;;;;;4.13;2.47;;;;;;;18.12;71.06;157073.25;5008471;28;20072;-75
2022/09/05 07:41:54;;;;;;;3.90;2.80;;;;;;;18.25;70.91;157105.44;5028170;28;20483;-76
2022/09/05 07:44:26;;;;;;;8.10;2.70;;;;;;;18.41;70.36;157145.44;4987990;28;20471;-75
2022/09/05 07:47:00;;;;;;;4.25;2.50;;;;;;;18.32;70.26;157123.50;5021800;28;20030;-76
2022/09/05 07:49:29;;;;;;;6.50;2.80;;;;;;;18.34;70.18;157127.38;5008066;28;20096;-75
2022/09/05 07:51:57;;;;;;;4.50;2.70;;;;;;;18.43;70.74;157150.56;5001602;28;20045;-75
2022/09/05 07:54:34;;;;;;;5.50;2.72;;;;;;;18.77;70.92;157236.94;5020556;28;20029;-74
2022/09/05 07:57:04;;;;;;;5.50;3.10;;;;;;;18.91;68.71;157271.81;5040536;28;20487;-75
2022/09/05 07:59:36;;;;;;;5.30;2.55;;;;;;;18.92;69.10;157273.09;5003866;28;20557;-75
2022/09/05 08:02:04;;;;;;;5.95;2.80;;;;;;;18.94;69.13;157279.53;4991341;28;20475;-74
2022/09/05 08:04:36;;;;;;;3.60;2.60;;;;;;;19.00;69.55;157293.72;5006580;28;20036;-75
2022/09/05 08:07:31;;;;;;;3.53;2.50;;;;;;;19.29;69.46;157367.22;5004639;28;20053;-76
2022/09/05 08:10:11;;;;;;;8.38;2.50;;;;;;;19.61;68.13;157448.47;5026226;28;20033;-75
2022/09/05 08:12:39;;;;;;;5.78;2.65;;;;;;;19.78;66.42;157489.81;5006008;28;20037;-75
2022/09/05 08:15:15;;;;;;;3.28;2.45;;;;;;;19.83;67.53;157502.69;4983595;28;20487;-75
2022/09/05 08:17:55;;;;;;;5.28;2.40;;;;;;;19.88;66.90;157515.59;5018584;28;20376;-75
2022/09/05 08:20:34;;;;;;;4.50;2.95;;;;;;;19.89;66.38;157516.88;4991668;28;20037;-75
2022/09/05 08:23:33;;;;;;;3.42;2.70;;;;;;;19.99;66.73;157543.97;5032176;28;20060;-75
2022/09/05 08:26:11;;;;;;;3.85;2.72;;;;;;;20.26;66.51;157611.06;4999962;28;20029;-74
2022/09/05 08:28:47;;;;;;;3.55;2.50;;;;;;;20.56;65.00;157685.91;5024488;28;20041;-74
2022/09/05 08:31:29;;;;;;;5.32;2.47;;;;;;;20.74;63.76;157732.44;5023279;28;20136;-74
2022/09/05 08:33:59;;;;;;;6.65;3.13;;;;;;;20.76;62.98;157737.59;5023429;28;20045;-72
2022/09/05 08:36:27;;;;;;;7.07;2.67;;;;;;;20.94;62.84;157781.44;5014017;28;20035;-75
2022/09/05 08:38:57;;;;;;;9.30;2.60;;;;;;;21.16;62.30;157836.97;5009503;28;20479;-75
2022/09/05 08:41:43;;;;;;;4.38;2.45;;;;;;;21.29;62.34;157870.53;5006181;28;20033;-74
2022/09/05 08:44:19;;;;;;;6.35;2.50;;;;;;;21.36;60.94;157888.59;5005881;28;20034;-74
2022/09/05 08:46:55;;;;;;;3.20;2.40;;;;;;;21.08;61.69;157816.28;5005130;28;20057;-73
2022/09/05 08:49:32;;;;;;;9.90;2.58;;;;;;;20.71;63.08;157723.38;5020628;28;20230;-74
2022/09/05 08:52:43;;;;;;;6.05;2.60;;;;;;;20.83;63.13;157754.31;4995055;28;20033;-75
2022/09/05 08:55:25;;;;;;;3.28;2.17;;;;;;;20.92;63.63;157776.28;5009636;28;20034;-76
2022/09/05 08:58:36;;;;;;;8.55;2.50;;;;;;;21.05;63.54;157809.84;5016800;28;20558;-76
2022/09/05 09:01:34;;;;;;;12.23;2.67;;;;;;;21.61;61.35;157950.63;5018594;28;20041;-74
2022/09/05 09:04:34;;;;;;;6.82;2.53;;;;;;;21.66;62.04;157962.22;5018786;28;20059;-76
2022/09/05 09:07:42;;;;;;;7.25;2.50;;;;;;;21.76;61.20;157988.06;5010643;28;20117;-74
2022/09/05 09:10:25;;;;;;;6.38;2.70;;;;;;;21.82;60.81;158002.28;5010563;28;20064;-74
2022/09/05 09:12:54;;;;;;;5.05;2.47;;;;;;;21.78;61.25;157993.25;5000301;28;20037;-75
2022/09/05 09:15:28;;;;;;;5.25;2.75;;;;;;;21.58;62.00;157944.16;5024416;28;20033;-74
2022/09/05 09:17:58;;;;;;;9.30;3.05;;;;;;;21.65;62.22;157959.66;5017222;28;20037;-74
2022/09/05 09:20:45;;;;;;;5.72;2.88;;;;;;;21.62;62.08;157953.19;5029629;28;20040;-74
2022/09/05 09:23:39;;;;;;;3.05;2.25;;;;;;;21.89;61.88;158021.66;5021081;28;20025;-74
2022/09/05 09:26:17;;;;;;;2.83;2.25;;;;;;;21.85;61.15;158011.31;5026957;28;20097;-75
2022/09/05 09:28:48;;;;;;;4.63;2.65;;;;;;;21.68;62.06;157968.72;4998678;28;20100;-74
2022/09/05 09:31:36;;;;;;;5.53;2.90;;;;;;;21.61;62.71;157950.63;5030113;28;20398;-73
2022/09/05 09:34:14;;;;;;;3.17;2.72;;;;;;;21.81;62.23;158000.94;5016105;28;20079;-74
2022/09/05 09:36:56;;;;;;;8.13;3.30;;;;;;;21.73;62.63;157980.31;5028269;28;20123;-74
2022/09/05 09:39:59;;;;;;;5.88;3.00;;;;;;;21.87;62.71;158015.16;5021817;28;20044;-76
2022/09/05 09:42:44;;;;;;;;;;;;;;;21.99;62.08;158044.91;5009398;28;20100;-74
2022/09/05 09:45:37;;;;;;;4.55;2.92;;;;;;;21.89;62.68;158020.38;4992812;28;19961;-74
2022/09/05 09:48:09;;;;;;;5.43;2.88;;;;;;;21.99;63.33;158044.91;5027438;28;20036;-75
2022/09/05 09:50:56;;;;;;;6.60;3.22;;;;;;;22.22;61.77;158104.28;5025486;28;20041;-75
2022/09/05 09:53:32;;;;;;;4.25;3.47;;;;;;;22.03;62.20;158055.22;5026544;28;20964;-74
2022/09/05 09:56:00;;;;;;;6.13;3.05;;;;;;;21.82;63.11;158002.28;5024945;28;20025;-75
2022/09/05 09:58:47;;;;;;;6.47;3.38;;;;;;;22.30;62.19;158123.69;5025728;28;20037;-75
2022/09/05 10:01:17;;;;;;;9.73;3.17;;;;;;;22.60;60.72;158199.91;5032306;28;20053;-76
2022/09/05 10:04:21;;;;;;;6.53;3.30;;;;;;;22.82;59.92;158254.19;5041114;28;20051;-75
2022/09/05 10:07:24;;;;;;;8.98;2.88;;;;;;;22.89;59.40;158273.56;5005493;28;20503;-75
2022/09/05 10:10:39;;;;;;;4.38;3.03;;;;;;;22.45;60.47;158162.50;5029609;28;20053;-74
2022/09/05 10:13:25;;;;;;;6.03;2.80;;;;;;;22.62;61.33;158203.78;5006042;28;20037;-73
2022/09/05 10:16:24;;;;;;;5.30;2.63;;;;;;;22.47;60.15;158167.66;5022781;28;20037;-74
2022/09/05 10:19:09;;;;;;;5.72;3.10;;;;;;;22.51;60.22;158177.97;5045111;28;20121;-75
2022/09/05 10:22:12;;;;;;;5.35;2.85;;;;;;;22.12;60.73;158078.47;5008437;28;20119;-74
2022/09/05 10:25:12;;;;;;;5.35;2.70;;;;;;;21.90;61.64;158022.94;5012763;28;20034;-75
2022/09/05 10:28:05;;;;;;;4.57;2.67;;;;;;;21.85;62.39;158011.31;5010377;28;20034;-74
2022/09/05 10:30:41;;;;;;;4.13;2.97;;;;;;;21.79;62.03;157995.78;5018143;28;20108;-75
2022/09/05 10:33:33;;;;;;;6.00;2.80;;;;;;;21.76;63.36;157988.06;5026686;28;20044;-74
2022/09/05 10:36:18;;;;;;;4.40;2.97;;;;;;;21.83;62.81;158004.84;5009470;28;20029;-76
2022/09/05 10:38:49;;;;;;;7.20;2.90;;;;;;;22.08;62.29;158069.44;5002444;28;20476;-74
2022/09/05 10:41:28;;;;;;;4.45;2.72;;;;;;;22.09;62.44;158070.72;5022301;28;20126;-74
2022/09/05 10:44:01;;;;;;;5.32;2.63;;;;;;;22.17;61.75;158092.69;5033946;28;20033;-75
2022/09/05 10:46:29;;;;;;;6.50;2.83;;;;;;;22.15;61.32;158087.50;5024207;28;20025;-74
2022/09/05 10:49:03;;;;;;;5.10;2.33;;;;;;;22.07;61.03;158066.81;5026549;28;20047;-73
2022/09/05 10:51:35;;;;;;;4.20;2.50;;;;;;;22.12;61.18;158079.75;5035409;28;20598;-74
2022/09/05 10:54:23;;;;;;;8.63;2.60;;;;;;;22.18;60.53;158093.97;5032601;28;20087;-75
2022/09/05 10:57:04;;;;;;;5.90;2.22;;;;;;;22.26;60.47;158113.38;5018302;28;20033;-74
2022/09/05 10:59:59;;;;;;;5.57;2.60;;;;;;;22.27;60.22;158115.97;5001323;28;20033;-75
2022/09/05 11:02:27;;;;;;;4.80;2.13;;;;;;;22.20;60.29;158097.84;5000948;28;20040;-74
2022/09/05 11:05:18;;;;;;;6.22;2.25;;;;;;;22.32;59.31;158128.88;5019547;28;20061;-75
2022/09/05 11:08:06;;;;;;;5.85;2.20;;;;;;;22.39;58.58;158145.69;5002115;28;20069;-74
2022/09/05 11:10:45;;;;;;;3.67;2.00;;;;;;;22.38;57.69;158144.41;5017257;28;20372;-75
2022/09/05 11:13:41;;;;;;;9.48;2.40;;;;;;;22.40;58.06;158148.28;5013328;28;20026;-74
2022/09/05 11:16:25;;;;;;;5.20;1.95;;;;;;;22.37;57.53;158140.50;5019256;28;20549;-75
2022/09/05 11:18:56;;;;;;;4.22;2.17;;;;;;;22.28;58.06;158119.88;5007545;28;20037;-74
2022/09/05 11:21:31;;;;;;;4.80;2.33;;;;;;;22.21;58.27;158100.41;5003490;28;20034;-75
2022/09/05 11:24:06;;;;;;;4.57;2.20;;;;;;;22.28;58.03;158119.88;5022203;28;20096;-74
2022/09/05 11:26:41;;;;;;;4.97;2.05;;;;;;;22.35;57.83;158137.91;5022818;28;20026;-73
2022/09/05 11:29:31;;;;;;;2.63;1.90;;;;;;;22.52;57.40;158179.25;5034387;28;20033;-75
2022/09/05 11:32:15;;;;;;;3.45;1.80;;;;;;;22.61;57.12;158202.50;5008698;28;20388;-75
2022/09/05 11:34:50;;;;;;;2.28;1.75;;;;;;;22.67;56.70;158218.00;5010379;28;20041;-75
2022/09/05 11:38:00;;;;;;;3.85;1.90;;;;;;;22.80;56.62;158250.31;5000669;28;20723;-74
2022/09/05 11:41:21;;;;;;;3.85;2.03;;;;;;;22.96;55.72;158290.34;5017491;28;20086;-75
2022/09/05 11:44:08;;;;;;;3.05;1.90;;;;;;;23.20;54.61;158351.13;4960692;28;20439;-74
2022/09/05 11:46:48;;;;;;;3.17;1.95;;;;;;;23.48;53.27;158420.94;5016650;28;20040;-74
2022/09/05 11:49:20;;;;;;;3.95;1.60;;;;;;;23.41;53.01;158402.81;5009364;28;20033;-73
2022/09/05 11:52:24;;;;;;;9.50;1.80;;;;;;;23.27;53.71;158367.94;5011055;28;20041;-74
2022/09/05 11:55:18;;;;;;;5.07;2.03;;;;;;;23.38;54.00;158396.38;5006928;28;20084;-76
2022/09/05 11:57:53;;;;;;;3.90;2.05;;;;;;;23.48;53.90;158422.22;4998908;28;20034;-75
2022/09/05 12:00:32;;;;;;;2.45;1.85;;;;;;;23.53;53.55;158433.88;5019596;28;20065;-74
2022/09/05 12:03:23;;;;;;;2.78;1.90;;;;;;;23.35;53.11;158387.31;5001135;28;20394;-75
2022/09/05 12:06:24;;;;;;;11.20;3.25;;;;;;;23.24;53.42;158360.19;5006716;28;20034;-73
2022/09/05 12:09:03;;;;;;;4.13;1.98;;;;;;;23.26;53.83;158365.34;5020668;28;20040;-73
2022/09/05 12:11:51;;;;;;;3.30;1.90;;;;;;;23.32;53.59;158380.88;5024844;28;20061;-74
2022/09/05 12:14:41;;;;;;;3.80;1.70;;;;;;;23.58;53.18;158445.47;5030031;28;20029;-75
2022/09/05 12:17:27;;;;;;;7.00;1.80;;;;;;;23.84;52.54;158511.44;5004000;28;20483;-75
2022/09/05 12:20:06;;;;;;;2.97;1.92;;;;;;;24.03;52.75;158560.56;5026939;28;20026;-74
2022/09/05 12:22:35;;;;;;;6.57;1.80;;;;;;;24.57;51.36;158696.38;5004536;28;20037;-73
2022/09/05 12:25:25;;;;;;;4.80;2.22;;;;;;;24.59;50.58;158700.25;4996466;28;20033;-74
2022/09/05 12:27:57;;;;;;;2.92;1.90;;;;;;;24.59;50.66;158700.25;5022443;28;20038;-74
2022/09/05 12:30:26;;;;;;;;;;;;;;;24.44;51.09;158662.72;4989713;28;20030;-73
2022/09/05 12:32:56;;;;;;;6.20;1.83;;;;;;;24.68;50.85;158724.81;5016823;28;19940;-75
2022/09/05 12:35:36;;;;;;;2.25;1.88;;;;;;;25.55;48.32;158943.47;5018587;28;20107;-74